Flight Track Log - Related Links

Times and Time Zones

All times are in EDT time to prevent confusion due to time zone crossing. See the BJS612 flight status page for this flight to view local times or setup timezone preferences in your user account.

Time Position Orientation Groundspeed Altitude Reporting Facility
EDT Latitude Longitude Course Direction KTS MPH feet Rate Location/Type
Thu 03:52:00 PM 41.4133 -81.8317 86° East 178 205 2,100  Level Cleveland Center
Thu 03:52:34 PM 41.4158 -81.7792 86° East 209 241 3,600 2,939 Climbing Cleveland Center
Thu 03:52:49 PM 41.4158 -81.7736 90° East 211 243 4,500 2,400 Climbing Cleveland Center
Thu 03:53:34 PM 41.3811 -81.7150 128° Southeast 248 285 6,000 2,727 Climbing Cleveland Center
Thu 03:55:34 PM 41.2589 -81.6300 152° Southeast 286 329 12,000 3,600 Climbing Cleveland Center
Thu 03:57:34 PM 41.1028 -81.8094 221° Southwest 333 383 20,400 3,767 Climbing Cleveland Center
Thu 03:58:34 PM 41.0225 -81.9069 223° Southwest 376 433 23,300 2,850 Climbing Cleveland Center
Thu 03:59:34 PM 40.9381 -82.0069 222° Southwest 401 461 26,100 2,510 Climbing Cleveland Center
Thu 04:01:50 PM 40.7144 -82.1792 210° Southwest 436 502 31,500 2,242 Climbing Indianapolis Center
Thu 04:02:52 PM 40.6069 -82.2575 209° Southwest 438 504 33,500 1,403 Climbing Indianapolis Center
Thu 04:03:54 PM 40.4761 -82.3539 209° Southwest 454 522 34,400 1,056 Climbing Indianapolis Center
Thu 04:04:57 PM 40.3606 -82.4378 209° Southwest 467 537 35,700 768 Climbing Indianapolis Center
Thu 04:05:59 PM 40.2475 -82.5178 208° Southwest 461 531 36,000 242 Climbing Indianapolis Center
Thu 04:07:01 PM 40.1300 -82.5772 201° Southwest 447 514 36,200 1,016 Climbing Indianapolis Center
Thu 04:08:03 PM 39.9983 -82.5686 177° South 465 535 38,100 1,355 Climbing Indianapolis Center
Thu 04:09:05 PM 39.8678 -82.5489 173° South 465 535 39,000 1,016 Climbing Indianapolis Center
Thu 04:10:07 PM 39.7344 -82.5308 174° South 473 544 40,200 1,161 Climbing Indianapolis Center
Thu 04:11:09 PM 39.6039 -82.5131 174° South 466 536 41,400 1,016 Climbing Indianapolis Center
Thu 04:12:11 PM 39.4742 -82.4958 174° South 462 532 42,300 774 Climbing Indianapolis Center
Thu 04:13:13 PM 39.3292 -82.4756 174° South 460 529 43,000 339 Climbing Indianapolis Center
Thu 04:14:15 PM 39.2006 -82.4578 174° South 465 535 43,000  Level Indianapolis Center
Thu 04:15:17 PM 39.0736 -82.4394 174° South 460 529 43,000  Level Indianapolis Center
Thu 04:16:19 PM 38.9439 -82.4217 174° South 467 537 43,000  Level Indianapolis Center
Thu 04:17:21 PM 38.8153 -82.4056 174° South 467 537 43,000  Level Indianapolis Center
Thu 04:18:23 PM 38.6603 -82.3856 174° South 467 537 43,000  Level Indianapolis Center
Thu 04:19:25 PM 38.5325 -82.3681 174° South 467 537 43,000  Level Indianapolis Center
Thu 04:20:27 PM 38.4042 -82.3514 174° South 466 536 43,000  Level Indianapolis Center
Thu 04:21:29 PM 38.2753 -82.3356 174° South 467 537 43,000  Level Indianapolis Center
Thu 04:22:31 PM 38.1456 -82.3175 174° South 469 540 43,000  Level Indianapolis Center
Thu 04:23:33 PM 37.9956 -82.2992 174° South 465 535 43,000  Level Indianapolis Center
Thu 04:24:36 PM 37.8644 -82.2822 174° South 469 540 43,000  Level Indianapolis Center
Thu 04:25:38 PM 37.7339 -82.2656 174° South 470 541 43,000  Level Indianapolis Center
Thu 04:26:40 PM 37.6031 -82.2478 174° South 470 541 43,000  Level Indianapolis Center
Thu 04:27:42 PM 37.4514 -82.2292 174° South 467 537 43,000  Level Indianapolis Center
Thu 04:28:44 PM 37.3217 -82.2114 174° South 466 536 43,000  Level Indianapolis Center
Thu 04:29:10 PM 37.2769 -82.2078 176° South 462 532 43,000  Level Atlanta Center
Thu 04:30:10 PM 37.1475 -82.1900 174° South 467 537 43,000  Level Atlanta Center
Thu 04:31:10 PM 37.0200 -82.1722 174° South 462 532 43,000  Level Atlanta Center
Thu 04:32:10 PM 36.8906 -82.1572 175° South 467 537 43,000  Level Atlanta Center
Thu 04:33:10 PM 36.7608 -82.1394 174° South 467 537 43,000  Level Atlanta Center
Thu 04:34:10 PM 36.6189 -82.1222 174° South 467 537 43,000  Level Atlanta Center
Thu 04:35:10 PM 36.4894 -82.1047 174° South 467 537 43,000  Level Atlanta Center
Thu 04:36:10 PM 36.3597 -82.0922 176° South 467 537 43,000  Level Atlanta Center
Thu 04:37:10 PM 36.2325 -82.0772 175° South 462 532 43,000  Level Atlanta Center
Thu 04:38:10 PM 36.1069 -82.0625 175° South 456 525 43,000  Level Atlanta Center
Thu 04:39:10 PM 35.9775 -82.0450 174° South 467 537 43,000  Level Atlanta Center
Thu 04:40:10 PM 35.8458 -82.0303 175° South 473 544 43,000  Level Atlanta Center
Thu 04:41:10 PM 35.7142 -82.0131 174° South 473 544 43,000  Level Atlanta Center
Thu 04:42:10 PM 35.5844 -81.9983 175° South 473 544 43,000  Level Atlanta Center
Thu 04:43:10 PM 35.4550 -81.9839 175° South 478 550 43,000  Level Atlanta Center
Thu 04:44:10 PM 35.3211 -81.9667 174° South 483 556 43,000  Level Atlanta Center
Thu 04:45:10 PM 35.1936 -81.9497 174° South 483 556 43,000  Level Atlanta Center
Thu 04:46:10 PM 35.0617 -81.9353 175° South 478 550 43,000  Level Atlanta Center
Thu 04:47:10 PM 34.9347 -81.9486 185° South 471 542 43,000  Level Atlanta Center
Thu 04:48:10 PM 34.8056 -81.9542 182° South 471 542 43,000  Level Atlanta Center
Thu 04:49:10 PM 34.6933 -81.9875 194° South 466 536 43,000  Level Atlanta Center
Thu 04:50:10 PM 34.5808 -82.0078 188° South 466 536 43,000  Level Atlanta Center
Thu 04:51:10 PM 34.4311 -82.0342 188° South 466 536 43,000  Level Atlanta Center
Thu 04:52:10 PM 34.3061 -82.0447 184° South 466 536 43,000  Level Atlanta Center
Thu 04:53:10 PM 34.1783 -82.0250 173° South 461 531 43,000  Level Atlanta Center
Thu 04:54:10 PM 34.0531 -82.0103 174° South 461 531 43,000  Level Atlanta Center
Thu 04:55:10 PM 33.9253 -81.9883 172° South 461 531 43,000 -150 Level Atlanta Center
Thu 04:56:10 PM 33.8228 -81.9758 174° South 467 537 42,700 -550 Descending Atlanta Center
Thu 04:57:10 PM 33.6847 -81.9567 173° South 467 537 41,900 -1,100 Descending Atlanta Center
Thu 04:58:10 PM 33.5572 -81.9375 173° South 467 537 40,500 -1,550 Descending Atlanta Center
Thu 04:59:10 PM 33.4336 -81.9231 174° South 462 532 38,800 -1,650 Descending Atlanta Center
Thu 05:00:10 PM 33.3144 -81.9061 173° South 448 516 37,200 -1,600 Descending Atlanta Center
Thu 05:01:10 PM 33.1972 -81.8889 173° South 442 509 35,600 -1,550 Descending Atlanta Center
Thu 05:02:10 PM 33.0739 -81.8747 175° South 442 509 34,100 -1,500 Descending Atlanta Center
Thu 05:03:10 PM 32.9419 -81.8556 173° South 462 532 32,600 -1,632 Descending Atlanta Center
Thu 05:04:15 PM 32.7822 -81.8325 173° South 510 587 30,700 -1,680 Descending Jacksonville Center
Thu 05:05:15 PM 32.6525 -81.8192 175° South 482 555 29,100 -1,350 Descending Jacksonville Center
Thu 05:06:15 PM 32.5208 -81.8011 173° South 480 552 28,000 -1,050 Descending Jacksonville Center
Thu 05:07:15 PM 32.3997 -81.7878 175° South 480 552 27,000 -1,100 Descending Jacksonville Center
Thu 05:08:15 PM 32.2597 -81.7650 172° South 480 552 25,800 -1,050 Descending Jacksonville Center
Thu 05:09:15 PM 32.1447 -81.7517 174° South 469 540 24,900 -900 Descending Jacksonville Center
Thu 05:10:15 PM 32.0089 -81.7311 173° South 462 532 24,000 -450 Descending Jacksonville Center
Thu 05:11:15 PM 31.8875 -81.7156 174° South 443 510 24,000  Level Jacksonville Center
Thu 05:12:15 PM 31.7767 -81.7000 173° South 443 510 24,000  Level Jacksonville Center
Thu 05:13:15 PM 31.6431 -81.6822 174° South 443 510 24,000 -450 Level Jacksonville Center
Thu 05:14:15 PM 31.5322 -81.6667 173° South 443 510 23,100 -950 Descending Jacksonville Center
Thu 05:15:15 PM 31.4022 -81.6292 166° South 448 516 22,100 -550 Descending Jacksonville Center
Thu 05:16:15 PM 31.2911 -81.5628 153° Southeast 444 511 22,000 -50 Descending Jacksonville Center
Thu 05:17:15 PM 31.1839 -81.4961 152° Southeast 439 505 22,000 -500 Level Jacksonville Center
Thu 05:18:15 PM 31.0808 -81.4297 151° Southeast 439 505 21,000 -1,350 Descending Jacksonville Center
Thu 05:19:15 PM 30.9839 -81.3708 152° Southeast 428 493 19,300 -2,100 Descending Jacksonville Center
Thu 05:20:15 PM 30.8936 -81.3117 151° Southeast 394 453 16,800 -2,516 Descending Jacksonville Center
Thu 05:20:48 PM 30.8389 -81.2789 153° Southeast 370 426 15,400 -2,500 Descending Jacksonville Center
Thu 05:21:15 PM 30.8050 -81.2575 152° Southeast 373 429 14,300 -2,345 Descending Jacksonville Center
Thu 05:22:15 PM 30.7147 -81.2011 152° Southeast 361 415 12,000 -1,752 Descending Jacksonville Center
Thu 05:23:08 PM 30.6369 -81.1664 159° South 337 388 11,000 -1,053 Descending Jacksonville Center
Thu 05:24:09 PM 30.5369 -81.1922 193° South 361 415 10,000 -1,134 Descending Jacksonville Center
Thu 05:25:15 PM 30.4431 -81.1939 181° South 332 382 8,600 -1,756 Descending Jacksonville Center
Thu 05:26:12 PM 30.3658 -81.1928 179° South 301 346 6,400 -1,983 Descending Jacksonville Center
Thu 05:27:13 PM 30.2889 -81.2206 197° South 284 327 4,700 -1,240 Descending Jacksonville Center
Thu 05:28:13 PM 30.2122 -81.2508 199° South 255 293 3,900 -492 Descending Jacksonville Center
Thu 05:29:15 PM 30.1539 -81.2733 198° South 269 310 3,700 -492 Descending Jacksonville Center
Thu 05:30:15 PM 30.0853 -81.2986 198° South 264 304 2,900 -1,041 Descending Jacksonville Center
Thu 05:31:16 PM 30.0297 -81.3522 220° Southwest 229 264 1,600 -923 Descending Jacksonville Center
Thu 05:32:12 PM 30.0028 -81.3839 226° Southwest 109 125 1,100 -536 Descending Jacksonville Center
Thu 05:34:00 PM 29.9592 -81.3397 190° South  Level Estimated
Thu 05:41:00 PM 29.9592 -81.3397 190° South  Level Estimated

Login

Don't have an account? Register now (free) for customized features, flight alerts, and more!